Time;durP1;ratioP1;P1;durP2;ratioP2;P2;SDS_P1;SDS_P2;PMS_P1;PMS_P2;Temp;Humidity;BMP_temperature;BMP_pressure;BME280_temperature;BME280_humidity;BME280_pressure;Samples;Min_cycle;Max_cycle;Signal;HPM_P1;HPM_P2
2022/11/21 05:01:11;;;;;;;1999.90;999.90;;;5.80;99.90;;;;;;5678558;22;20049;-76
2022/11/21 05:03:36;;;;;;;1999.90;999.90;;;5.80;99.90;;;;;;5036980;28;20045;-77
2022/11/21 05:06:02;;;;;;;1999.90;999.90;;;5.90;99.90;;;;;;5036885;28;20160;-76
2022/11/21 05:08:28;;;;;;;1999.90;999.90;;;5.90;99.90;;;;;;5035522;28;20150;-77
2022/11/21 05:13:37;;;;;;;1999.90;999.90;;;5.90;99.90;;;;;;5037824;28;20038;-77
2022/11/21 05:16:03;;;;;;;1999.90;999.90;;;5.90;99.90;;;;;;5036320;28;20026;-75
2022/11/21 05:18:29;;;;;;;1999.90;999.90;;;5.90;99.90;;;;;;5036902;28;20042;-76
2022/11/21 05:20:54;;;;;;;1999.90;999.90;;;5.90;99.90;;;;;;5036308;28;20034;-75
2022/11/21 05:23:20;;;;;;;1999.90;999.90;;;5.90;99.90;;;;;;5036184;28;20116;-75
2022/11/21 05:25:46;;;;;;;1999.90;999.90;;;5.90;99.90;;;;;;5036621;28;20034;-75
2022/11/21 05:28:11;;;;;;;1999.90;999.90;;;5.90;99.90;;;;;;5036656;28;20078;-75
2022/11/21 05:30:39;;;;;;;1999.90;999.90;;;5.90;99.90;;;;;;5034571;28;20034;-75
2022/11/21 05:33:05;;;;;;;1999.90;999.90;;;5.90;99.90;;;;;;5035130;28;20034;-75
2022/11/21 05:35:31;;;;;;;1999.90;999.90;;;5.90;99.90;;;;;;5036212;28;20593;-75
2022/11/21 05:37:57;;;;;;;1999.90;999.90;;;5.90;99.90;;;;;;5036277;28;20065;-75
2022/11/21 05:40:24;;;;;;;1999.90;999.90;;;5.90;99.90;;;;;;5034086;28;20505;-75
2022/11/21 05:45:34;;;;;;;1999.90;999.90;;;5.80;99.90;;;;;;5036214;28;20033;-76
2022/11/21 05:48:00;;;;;;;1999.90;999.90;;;5.70;99.90;;;;;;5036519;28;20026;-75
2022/11/21 05:50:26;;;;;;;1999.90;999.90;;;5.70;99.90;;;;;;5034241;28;20038;-75
2022/11/21 05:52:51;;;;;;;1999.90;999.90;;;5.70;99.90;;;;;;5034597;28;20038;-75
2022/11/21 05:55:17;;;;;;;1999.90;999.90;;;5.70;99.90;;;;;;5036483;28;20522;-76
2022/11/21 05:57:42;;;;;;;1999.90;999.90;;;5.60;99.90;;;;;;5036444;28;20029;-75
2022/11/21 06:00:08;;;;;;;1999.90;999.90;;;5.60;99.90;;;;;;5034360;28;20045;-75
2022/11/21 06:05:18;;;;;;;1999.90;999.90;;;5.60;99.90;;;;;;5036348;28;20155;-75
2022/11/21 06:07:44;;;;;;;1999.90;999.90;;;5.70;99.90;;;;;;5035743;28;20092;-75
2022/11/21 06:10:09;;;;;;;1999.90;999.90;;;5.70;99.90;;;;;;5034078;28;20038;-75
2022/11/21 06:12:35;;;;;;;1999.90;999.90;;;5.70;99.90;;;;;;5035940;28;20539;-75
2022/11/21 06:15:00;;;;;;;1999.90;999.90;;;5.70;99.90;;;;;;5035919;28;20070;-76
2022/11/21 06:17:26;;;;;;;1999.90;999.90;;;5.70;99.90;;;;;;5033894;28;20088;-75
2022/11/21 06:19:51;;;;;;;1999.90;999.90;;;5.90;99.90;;;;;;5035332;28;20049;-75
2022/11/21 06:22:17;;;;;;;1999.90;999.90;;;5.70;99.90;;;;;;5035578;28;20117;-75
2022/11/21 06:24:42;;;;;;;1999.90;999.90;;;5.80;99.90;;;;;;5035587;28;20057;-75
2022/11/21 06:27:08;;;;;;;1999.90;999.90;;;5.70;99.90;;;;;;5035708;28;20030;-76
2022/11/21 06:29:37;;;;;;;1999.90;999.90;;;5.80;99.90;;;;;;5033850;28;20037;-75
2022/11/21 06:32:02;;;;;;;1999.90;999.90;;;5.80;99.90;;;;;;5035240;28;20466;-75
2022/11/21 06:34:28;;;;;;;1999.90;999.90;;;5.80;99.90;;;;;;5035568;28;20042;-76
2022/11/21 06:36:53;;;;;;;1999.90;999.90;;;5.80;99.90;;;;;;5035065;28;20040;-76
2022/11/21 06:39:19;;;;;;;1999.90;999.90;;;5.90;99.90;;;;;;5035125;28;20042;-76
2022/11/21 06:41:49;;;;;;;1999.90;999.90;;;5.90;99.90;;;;;;5035228;28;20034;-75
2022/11/21 06:44:16;;;;;;;1999.90;999.90;;;5.90;99.90;;;;;;5033936;28;20040;-75
2022/11/21 06:46:42;;;;;;;1999.90;999.90;;;5.90;99.90;;;;;;5033521;28;20129;-76
2022/11/21 06:49:07;;;;;;;1999.90;999.90;;;5.90;99.90;;;;;;5034585;28;20157;-76
2022/11/21 06:51:33;;;;;;;1999.90;999.90;;;5.90;99.90;;;;;;5035179;28;20072;-76
2022/11/21 06:53:59;;;;;;;1999.90;999.90;;;6.00;99.90;;;;;;5033697;28;20045;-76
2022/11/21 06:56:26;;;;;;;1999.90;999.90;;;6.00;99.90;;;;;;5035493;28;20063;-76
2022/11/21 06:58:52;;;;;;;1999.90;999.90;;;6.00;99.90;;;;;;5034774;28;20446;-76
2022/11/21 07:01:18;;;;;;;1999.90;999.90;;;6.00;99.90;;;;;;5033093;28;20038;-77
2022/11/21 07:03:44;;;;;;;1999.90;999.90;;;6.00;99.90;;;;;;5034922;28;20475;-79
2022/11/21 07:06:09;;;;;;;1999.90;999.90;;;6.00;99.90;;;;;;5035358;28;20030;-76
2022/11/21 07:08:35;;;;;;;1999.90;999.90;;;6.00;99.90;;;;;;5034777;28;20041;-77
2022/11/21 07:11:03;;;;;;;1999.90;999.90;;;6.00;99.90;;;;;;5034886;28;20038;-76
2022/11/21 07:13:29;;;;;;;1999.90;999.90;;;6.00;99.90;;;;;;5033265;28;20487;-76
2022/11/21 07:16:01;;;;;;;1999.90;999.90;;;6.00;99.90;;;;;;5034527;28;20124;-76
2022/11/21 07:18:27;;;;;;;1999.90;999.90;;;6.10;99.90;;;;;;5035213;28;20608;-80
2022/11/21 07:21:00;;;;;;;1999.90;999.90;;;6.10;99.90;;;;;;5033167;28;20042;-77
2022/11/21 07:23:26;;;;;;;1999.90;999.90;;;6.10;99.90;;;;;;5034673;28;20076;-77
2022/11/21 07:25:52;;;;;;;1999.90;999.90;;;6.10;99.90;;;;;;5034787;28;20113;-77
2022/11/21 07:28:17;;;;;;;1999.90;999.90;;;6.20;99.90;;;;;;5034746;28;20030;-77
2022/11/21 07:30:43;;;;;;;1999.90;999.90;;;6.20;99.90;;;;;;5034325;28;20080;-76
2022/11/21 07:33:09;;;;;;;1999.90;999.90;;;6.20;99.90;;;;;;5034640;28;20045;-76
2022/11/21 07:35:35;;;;;;;1999.90;999.90;;;6.20;99.90;;;;;;5033174;28;20112;-76
2022/11/21 07:38:01;;;;;;;1999.90;999.90;;;6.20;99.90;;;;;;5032965;28;20459;-76
2022/11/21 07:40:27;;;;;;;1999.90;999.90;;;6.10;99.90;;;;;;5033810;28;20456;-76
2022/11/21 07:42:53;;;;;;;1999.90;999.90;;;6.10;99.90;;;;;;5034378;28;20041;-76
2022/11/21 07:45:19;;;;;;;1999.90;999.90;;;6.00;99.90;;;;;;5032990;28;20573;-75
2022/11/21 07:47:44;;;;;;;1999.90;999.90;;;6.00;99.90;;;;;;5034165;28;20053;-76
2022/11/21 07:50:11;;;;;;;1999.90;999.90;;;6.00;99.90;;;;;;5034023;28;20392;-76
2022/11/21 07:52:37;;;;;;;1999.90;999.90;;;6.00;99.90;;;;;;5034064;28;20037;-76
2022/11/21 07:55:04;;;;;;;1999.90;999.90;;;6.00;99.90;;;;;;5033993;28;20042;-76
2022/11/21 07:57:30;;;;;;;1999.90;999.90;;;6.00;99.90;;;;;;5034167;28;20030;-76
2022/11/21 07:59:56;;;;;;;1999.90;999.90;;;6.00;99.90;;;;;;5033891;28;20486;-76
2022/11/21 08:02:26;;;;;;;1999.90;999.90;;;6.10;99.90;;;;;;5035834;28;20037;-76
2022/11/21 08:04:52;;;;;;;1999.90;999.90;;;6.10;99.90;;;;;;5034912;28;20037;-75
2022/11/21 08:07:20;;;;;;;1999.90;999.90;;;6.00;99.90;;;;;;5032750;28;20034;-76
2022/11/21 08:09:46;;;;;;;1999.90;999.90;;;5.90;99.90;;;;;;5032384;28;20069;-76
2022/11/21 08:12:12;;;;;;;1999.90;999.90;;;6.00;99.90;;;;;;5033862;28;20049;-76
2022/11/21 08:14:38;;;;;;;1999.90;999.90;;;6.00;99.90;;;;;;5034362;28;20033;-76
2022/11/21 08:17:04;;;;;;;1999.90;999.90;;;6.20;99.90;;;;;;5034786;28;20041;-75
2022/11/21 08:19:30;;;;;;;1999.90;999.90;;;6.30;99.90;;;;;;5034306;28;20056;-76
2022/11/21 08:21:56;;;;;;;1999.90;999.90;;;6.40;99.90;;;;;;5035179;28;20036;-76
2022/11/21 08:24:22;;;;;;;1999.90;999.90;;;6.50;99.90;;;;;;5037847;28;20034;-76
2022/11/21 08:26:47;;;;;;;1999.90;999.90;;;6.40;99.90;;;;;;5037880;28;20034;-76
2022/11/21 08:29:16;;;;;;;1999.90;999.90;;;6.50;99.90;;;;;;5037151;28;20120;-76
2022/11/21 08:31:42;;;;;;;1999.90;999.90;;;6.50;99.90;;;;;;5037058;28;20033;-76
2022/11/21 08:34:08;;;;;;;1999.90;999.90;;;6.50;99.90;;;;;;5037889;28;20038;-75
2022/11/21 08:36:34;;;;;;;1999.90;999.90;;;6.50;99.90;;;;;;5037370;28;20061;-75
2022/11/21 08:39:00;;;;;;;1999.90;999.90;;;6.60;99.90;;;;;;5036581;28;20046;-76
2022/11/21 08:44:23;;;;;;;1999.90;999.90;;;6.60;99.90;;;;;;5024422;28;20042;-75
2022/11/21 08:46:49;;;;;;;1999.90;999.90;;;6.60;99.90;;;;;;5037100;28;20029;-75
2022/11/21 08:49:14;;;;;;;1999.90;999.90;;;6.50;99.90;;;;;;5037178;28;20042;-75
2022/11/21 08:51:40;;;;;;;1999.90;999.90;;;6.50;99.90;;;;;;5035913;28;20368;-75
2022/11/21 08:54:06;;;;;;;1999.90;999.90;;;6.50;99.90;;;;;;5037475;28;20038;-75
2022/11/21 08:56:31;;;;;;;1999.90;999.90;;;6.60;99.90;;;;;;5035733;28;20442;-75
2022/11/21 08:58:57;;;;;;;1999.90;999.90;;;6.60;99.90;;;;;;5035506;28;20046;-75
2022/11/21 09:01:23;;;;;;;1999.90;999.90;;;6.60;99.90;;;;;;5036694;28;20045;-75
2022/11/21 09:03:48;;;;;;;1999.90;999.90;;;6.60;99.90;;;;;;5036042;28;20113;-76
2022/11/21 09:06:14;;;;;;;1999.90;999.90;;;6.60;99.90;;;;;;5037420;28;20041;-78
2022/11/21 09:08:40;;;;;;;1999.90;999.90;;;6.60;99.90;;;;;;5035885;28;20041;-75
2022/11/21 09:11:07;;;;;;;1999.90;999.90;;;6.60;99.90;;;;;;5037024;28;20149;-75
2022/11/21 09:13:34;;;;;;;1999.90;999.90;;;6.70;99.90;;;;;;5035376;28;20549;-75
2022/11/21 09:18:44;;;;;;;1999.90;999.90;;;6.70;99.90;;;;;;5036817;28;20050;-75
2022/11/21 09:21:14;;;;;;;1999.90;999.90;;;6.70;99.90;;;;;;5036667;28;20026;-75
2022/11/21 09:23:40;;;;;;;1999.90;999.90;;;6.80;99.90;;;;;;5035411;28;20036;-75
2022/11/21 09:26:06;;;;;;;1999.90;999.90;;;6.90;99.90;;;;;;5036647;28;20423;-76
2022/11/21 09:28:31;;;;;;;1999.90;999.90;;;7.00;99.90;;;;;;5035404;28;20044;-75
2022/11/21 09:30:57;;;;;;;1999.90;999.90;;;7.20;99.90;;;;;;5036929;28;20032;-75
2022/11/21 09:33:22;;;;;;;1999.90;999.90;;;7.10;99.90;;;;;;5035531;28;20129;-75
2022/11/21 09:35:48;;;;;;;1999.90;999.90;;;7.20;99.90;;;;;;5035459;28;20041;-78
2022/11/21 09:38:14;;;;;;;1999.90;999.90;;;7.20;99.90;;;;;;5035498;28;20041;-75
2022/11/21 09:40:44;;;;;;;1999.90;999.90;;;7.30;99.90;;;;;;5036331;28;20575;-75
2022/11/21 09:43:34;;;;;;;1999.90;999.90;;;7.40;99.90;;;;;;5037039;28;20475;-75
2022/11/21 09:46:16;;;;;;;1999.90;999.90;;;7.30;99.90;;;;;;5035651;28;20064;-75
2022/11/21 09:48:47;;;;;;;1999.90;999.90;;;7.20;99.90;;;;;;5034782;28;20038;-78
2022/11/21 09:51:15;;;;;;;1999.90;999.90;;;7.10;99.90;;;;;;5036210;28;20038;-75
2022/11/21 09:54:25;;;;;;;1999.90;999.90;;;7.00;99.90;;;;;;5036204;28;20336;-75
2022/11/21 09:56:53;;;;;;;1999.90;999.90;;;6.90;99.90;;;;;;5033069;28;20050;-76
2022/11/21 09:59:30;;;;;;;1999.90;999.90;;;6.80;99.90;;;;;;5035624;28;20041;-75
2022/11/21 10:01:56;;;;;;;1999.90;999.90;;;6.80;99.90;;;;;;5036146;28;20495;-76
2022/11/21 10:04:22;;;;;;;1999.90;999.90;;;6.80;99.90;;;;;;5036109;28;20061;-76
2022/11/21 10:06:56;;;;;;;1999.90;999.90;;;6.90;99.90;;;;;;5036403;28;20562;-78
2022/11/21 10:09:28;;;;;;;1999.90;999.90;;;7.00;99.90;;;;;;5035922;28;20117;-77
2022/11/21 10:12:36;;;;;;;1999.90;999.90;;;7.20;99.90;;;;;;5035880;28;20119;-76
2022/11/21 10:15:26;;;;;;;1999.90;999.90;;;7.70;99.90;;;;;;5036234;28;20034;-76
2022/11/21 10:18:13;;;;;;;1999.90;999.90;;;8.00;99.90;;;;;;5035834;28;20036;-76
2022/11/21 10:21:00;;;;;;;1999.90;999.90;;;8.10;99.90;;;;;;5035250;28;20049;-76
2022/11/21 10:24:00;;;;;;;1999.90;999.90;;;8.10;99.90;;;;;;5034415;28;20030;-76
2022/11/21 10:26:40;;;;;;;1999.90;999.90;;;8.00;99.90;;;;;;5034403;28;20041;-76
2022/11/21 10:29:24;;;;;;;1999.90;999.90;;;7.90;99.90;;;;;;5034045;28;20036;-75
2022/11/21 10:31:54;;;;;;;1999.90;999.90;;;7.60;99.90;;;;;;5035498;28;20108;-76
2022/11/21 10:34:24;;;;;;;1999.90;999.90;;;7.60;99.90;;;;;;5035488;28;20470;-76
2022/11/21 10:37:24;;;;;;;1999.90;999.90;;;7.40;99.90;;;;;;5035208;28;20037;-76
2022/11/21 10:39:52;;;;;;;1999.90;999.90;;;7.40;99.90;;;;;;5032346;28;20112;-76
2022/11/21 10:42:35;;;;;;;1999.90;999.90;;;7.40;99.90;;;;;;5033665;28;20041;-76
2022/11/21 10:45:18;;;;;;;1999.90;999.90;;;7.40;99.90;;;;;;5034630;28;20491;-76
2022/11/21 10:47:49;;;;;;;1999.90;999.90;;;7.40;99.90;;;;;;5035465;28;20107;-76
2022/11/21 10:50:37;;;;;;;1999.90;999.90;;;7.70;99.90;;;;;;5035474;28;20064;-77
2022/11/21 10:56:16;;;;;;;1999.90;999.90;;;8.70;99.90;;;;;;5036056;28;20041;-78
2022/11/21 10:58:43;;;;;;;1999.90;999.90;;;8.90;99.90;;;;;;5035463;28;20034;-77
2022/11/21 11:01:26;;;;;;;1999.90;999.90;;;8.60;99.90;;;;;;5033028;28;20034;-75
2022/11/21 11:04:16;;;;;;;1999.90;999.90;;;8.50;99.90;;;;;;5035551;28;20037;-76
2022/11/21 11:06:45;;;;;;;1999.90;999.90;;;8.40;99.90;;;;;;5038333;28;20478;-81
2022/11/21 11:09:33;;;;;;;1999.90;999.90;;;8.50;99.90;;;;;;5037237;28;20040;-81
2022/11/21 11:12:17;;;;;;;1999.90;999.90;;;8.80;99.90;;;;;;5037754;28;20034;-79
2022/11/21 11:14:50;;;;;;;1999.90;999.90;;;9.00;99.90;;;;;;5055776;22;20049;-82
2022/11/21 11:17:16;;;;;;;1999.90;999.90;;;9.00;99.90;;;;;;5056003;28;20063;-78
2022/11/21 11:20:04;;;;;;;1999.90;999.90;;;8.90;99.90;;;;;;5055343;28;20501;-78
2022/11/21 11:22:30;;;;;;;1999.90;999.90;;;8.80;99.90;;;;;;5053380;28;20107;-78
2022/11/21 11:24:55;;;;;;;1999.90;999.90;;;8.80;99.90;;;;;;5065805;28;20029;-78
2022/11/21 11:27:28;;;;;;;1999.90;999.90;;;8.80;99.90;;;;;;5073264;28;20397;-78
2022/11/21 11:29:53;;;;;;;1999.90;999.90;;;8.60;99.90;;;;;;5074493;28;20037;-77
2022/11/21 11:32:20;;;;;;;1999.90;999.90;;;8.60;99.90;;;;;;5074794;28;20029;-78
2022/11/21 11:34:59;;;;;;;1999.90;999.90;;;8.50;99.90;;;;;;5074292;28;20524;-77
2022/11/21 11:37:56;;;;;;;1999.90;999.90;;;8.40;99.90;;;;;;5072659;28;20037;-78
2022/11/21 11:40:40;;;;;;;1999.90;999.90;;;8.30;99.90;;;;;;5068624;28;20049;-78
2022/11/21 11:50:12;;;;;;;1999.90;999.90;;;8.20;99.90;;;;;;5072807;28;20037;-78
2022/11/21 11:53:02;;;;;;;1999.90;999.90;;;8.30;99.90;;;;;;5073225;28;20033;-78
2022/11/21 11:55:40;;;;;;;1999.90;999.90;;;8.30;99.90;;;;;;5075830;28;20040;-77
2022/11/21 11:58:16;;;;;;;1999.90;999.90;;;8.40;99.90;;;;;;5078381;28;20033;-78
2022/11/21 12:01:14;;;;;;;1999.90;999.90;;;8.50;99.90;;;;;;5076375;28;20037;-78
2022/11/21 12:03:58;;;;;;;1999.90;999.90;;;8.70;99.90;;;;;;5054343;28;20057;-78
2022/11/21 12:06:28;;;;;;;1999.90;999.90;;;9.10;99.90;;;;;;5078487;28;20461;-76
2022/11/21 12:09:01;;;;;;;1999.90;999.90;;;9.40;99.90;;;;;;5079428;28;20036;-79
2022/11/21 12:18:04;;;;;;;1999.90;999.90;;;9.60;99.90;;;;;;5079353;28;20068;-79
2022/11/21 12:20:40;;;;;;;1999.90;999.90;;;9.80;99.90;;;;;;5078941;28;20514;-79
2022/11/21 12:23:08;;;;;;;1999.90;999.90;;;9.90;99.90;;;;;;5086172;28;20029;-79
2022/11/21 12:25:40;;;;;;;1999.90;999.90;;;10.20;99.90;;;;;;5088399;28;20029;-77
2022/11/21 12:28:17;;;;;;;1999.90;999.90;;;10.60;99.90;;;;;;5083964;28;20029;-79
2022/11/21 12:31:15;;;;;;;1999.90;999.90;;;10.90;99.90;;;;;;5082255;28;20039;-79
2022/11/21 12:33:57;;;;;;;1999.90;999.90;;;11.10;99.90;;;;;;5079822;28;20110;-79
2022/11/21 12:36:49;;;;;;;1999.90;999.90;;;11.00;99.90;;;;;;5081985;28;20095;-79
2022/11/21 12:39:47;;;;;;;1999.90;999.90;;;10.70;99.90;;;;;;5080269;28;20041;-79
2022/11/21 12:42:50;;;;;;;1999.90;999.90;;;10.30;99.90;;;;;;5050548;28;20048;-79
2022/11/21 12:45:27;;;;;;;1999.90;999.90;;;9.90;99.90;;;;;;5078807;28;20036;-79
2022/11/21 12:56:56;;;;;;;1999.90;999.90;;;9.10;99.90;;;;;;5076188;28;20041;-78
2022/11/21 12:59:24;;;;;;;1999.90;999.90;;;9.00;99.90;;;;;;5078548;28;20037;-79
2022/11/21 13:02:16;;;;;;;1999.90;999.90;;;8.90;99.90;;;;;;5078955;28;20032;-78
2022/11/21 13:04:45;;;;;;;1999.90;999.90;;;8.90;99.90;;;;;;5078927;28;20044;-78
2022/11/21 13:07:11;;;;;;;1999.90;999.90;;;8.80;99.90;;;;;;5079910;28;20033;-78
2022/11/21 13:09:41;;;;;;;1999.90;999.90;;;8.80;99.90;;;;;;5081376;28;20857;-78
2022/11/21 13:12:34;;;;;;;1999.90;999.90;;;9.00;99.90;;;;;;5080984;28;20033;-79
2022/11/21 13:15:09;;;;;;;1999.90;999.90;;;9.30;99.90;;;;;;5078370;28;20103;-79
2022/11/21 13:17:47;;;;;;;1999.90;999.90;;;9.50;99.90;;;;;;5079148;28;20857;-79
2022/11/21 13:20:37;;;;;;;1999.90;999.90;;;9.40;99.90;;;;;;5077578;28;20063;-79
2022/11/21 13:23:06;;;;;;;1999.90;999.90;;;9.20;99.90;;;;;;5078234;28;20402;-79
2022/11/21 13:25:32;;;;;;;1999.90;999.90;;;9.20;99.90;;;;;;5078720;28;20029;-79
2022/11/21 13:28:16;;;;;;;1999.90;999.90;;;9.10;99.90;;;;;;5079090;28;20107;-79
2022/11/21 13:30:53;;;;;;;1999.90;999.90;;;9.10;99.90;;;;;;5078216;28;20037;-79
2022/11/21 13:33:34;;;;;;;1999.90;999.90;;;9.10;99.90;;;;;;5079136;28;20108;-79
2022/11/21 13:36:06;;;;;;;1999.90;999.90;;;8.80;99.90;;;;;;5076576;28;20041;-79
2022/11/21 13:38:52;;;;;;;1999.90;999.90;;;8.70;99.90;;;;;;5078421;28;20115;-78
2022/11/21 13:44:32;;;;;;;1999.90;999.90;;;8.50;99.90;;;;;;5075503;28;20033;-78
2022/11/21 13:47:08;;;;;;;1999.90;999.90;;;8.60;99.90;;;;;;5076284;28;20123;-78
2022/11/21 13:49:45;;;;;;;1999.90;999.90;;;8.60;99.90;;;;;;5078113;28;20067;-78
2022/11/21 13:52:25;;;;;;;1999.90;999.90;;;8.80;99.90;;;;;;5077505;28;20037;-78
2022/11/21 13:55:23;;;;;;;1999.90;999.90;;;8.90;99.90;;;;;;5078559;28;20063;-78
2022/11/21 13:57:48;;;;;;;1999.90;999.90;;;9.10;99.90;;;;;;5078757;28;20040;-78
2022/11/21 14:00:25;;;;;;;1999.90;999.90;;;9.20;99.90;;;;;;5078386;28;20037;-78
2022/11/21 14:03:08;;;;;;;1999.90;999.90;;;9.20;99.90;;;;;;5080570;28;20043;-78
2022/11/21 14:06:19;;;;;;;1999.90;999.90;;;9.20;99.90;;;;;;5080325;28;20033;-79
2022/11/21 14:09:12;;;;;;;1999.90;999.90;;;9.30;99.90;;;;;;5082092;28;20069;-78
2022/11/21 14:11:47;;;;;;;1999.90;999.90;;;9.50;99.90;;;;;;5085479;28;20033;-78
2022/11/21 14:14:25;;;;;;;1999.90;999.90;;;9.60;99.90;;;;;;5082720;28;20489;-78
2022/11/21 14:17:02;;;;;;;1999.90;999.90;;;9.40;99.90;;;;;;5082174;28;20037;-78
2022/11/21 14:19:31;;;;;;;1999.90;999.90;;;9.30;99.90;;;;;;5076620;28;20092;-78
2022/11/21 14:21:58;;;;;;;1999.90;999.90;;;9.20;99.90;;;;;;5077786;28;20025;-78
2022/11/21 14:24:24;;;;;;;1999.90;999.90;;;9.10;99.90;;;;;;5076085;28;20059;-78
2022/11/21 14:26:51;;;;;;;1999.90;999.90;;;8.90;99.90;;;;;;5078330;28;20501;-78
2022/11/21 14:29:21;;;;;;;1999.90;999.90;;;8.70;99.90;;;;;;5075951;28;20040;-78
2022/11/21 14:31:48;;;;;;;1999.90;999.90;;;8.50;99.90;;;;;;5077537;28;20067;-78
2022/11/21 14:34:24;;;;;;;1999.90;999.90;;;8.30;99.90;;;;;;5076693;28;20029;-78
2022/11/21 14:36:50;;;;;;;1999.90;999.90;;;8.20;99.90;;;;;;5077028;28;20061;-79
2022/11/21 14:39:17;;;;;;;1999.90;999.90;;;8.00;99.90;;;;;;5075212;28;20455;-79
2022/11/21 14:41:50;;;;;;;1999.90;999.90;;;7.80;99.90;;;;;;5076464;28;20491;-79
2022/11/21 14:44:18;;;;;;;1999.90;999.90;;;7.60;99.90;;;;;;5074514;28;20099;-79
2022/11/21 14:46:44;;;;;;;1999.90;999.90;;;7.50;99.90;;;;;;5074672;28;20025;-78
2022/11/21 14:49:19;;;;;;;1999.90;999.90;;;7.30;99.90;;;;;;5075707;28;20040;-78
2022/11/21 14:51:51;;;;;;;1999.90;999.90;;;7.10;99.90;;;;;;5075723;28;20028;-78
2022/11/21 14:54:23;;;;;;;1999.90;999.90;;;6.90;99.90;;;;;;5075173;28;20036;-78
2022/11/21 14:56:59;;;;;;;1999.90;999.90;;;6.70;99.90;;;;;;5075632;28;20094;-79
2022/11/21 14:59:38;;;;;;;1999.90;999.90;;;6.60;99.90;;;;;;5073516;28;20041;-78
2022/11/21 15:02:11;;;;;;;1999.90;999.90;;;6.40;99.90;;;;;;5075876;28;20548;-79
2022/11/21 15:04:36;;;;;;;1999.90;999.90;;;6.30;99.90;;;;;;5074790;28;20107;-78
2022/11/21 15:07:03;;;;;;;1999.90;999.90;;;6.20;99.90;;;;;;5074698;28;20511;-81
2022/11/21 15:09:30;;;;;;;1999.90;999.90;;;6.10;99.90;;;;;;5075813;28;20068;-82
2022/11/21 15:12:04;;;;;;;1999.90;999.90;;;5.90;99.90;;;;;;5076757;28;20171;-81
2022/11/21 15:14:35;;;;;;;1999.90;999.90;;;5.90;99.90;;;;;;5078931;28;20041;-80
2022/11/21 15:17:05;;;;;;;1999.90;999.90;;;5.70;99.90;;;;;;5078234;28;20062;-80
2022/11/21 15:19:31;;;;;;;1999.90;999.90;;;5.60;99.90;;;;;;5078737;28;20081;-81
2022/11/21 15:21:59;;;;;;;1999.90;999.90;;;5.60;99.90;;;;;;5077894;28;20025;-80
2022/11/21 15:24:36;;;;;;;1999.90;999.90;;;5.50;99.90;;;;;;5080071;28;20032;-82
2022/11/21 15:27:28;;;;;;;1999.90;999.90;;;5.40;99.90;;;;;;5079396;28;20029;-81
2022/11/21 15:30:30;;;;;;;1999.90;999.90;;;5.20;99.90;;;;;;5075518;28;20037;-81
2022/11/21 15:33:08;;;;;;;1999.90;999.90;;;5.20;99.90;;;;;;5055156;28;20037;-82
2022/11/21 15:35:37;;;;;;;1999.90;999.90;;;5.20;99.90;;;;;;5076966;28;20033;-81
2022/11/21 15:38:26;;;;;;;1999.90;999.90;;;5.10;99.90;;;;;;5076365;28;20099;-82
2022/11/21 15:41:08;;;;;;;1999.90;999.90;;;5.00;99.90;;;;;;5076391;28;20053;-80
2022/11/21 15:43:44;;;;;;;1999.90;999.90;;;5.10;99.90;;;;;;5076422;28;20028;-78
2022/11/21 15:46:28;;;;;;;1999.90;999.90;;;5.00;99.90;;;;;;5074310;28;20037;-79
2022/11/21 15:48:55;;;;;;;1999.90;999.90;;;5.00;99.90;;;;;;5073381;28;20029;-77
2022/11/21 15:51:26;;;;;;;1999.90;999.90;;;4.90;99.90;;;;;;5074325;28;20048;-77
2022/11/21 15:53:52;;;;;;;1999.90;999.90;;;4.90;99.90;;;;;;5074353;28;20033;-77
2022/11/21 15:56:19;;;;;;;1999.90;999.90;;;4.80;99.90;;;;;;5074414;28;20794;-77
2022/11/21 15:58:46;;;;;;;1999.90;999.90;;;4.70;99.90;;;;;;5072052;28;20029;-77
2022/11/21 16:01:28;;;;;;;1999.90;999.90;;;4.70;99.90;;;;;;5075515;28;20041;-78
2022/11/21 16:03:59;;;;;;;1999.90;999.90;;;4.70;99.90;;;;;;5072909;28;20080;-80
2022/11/21 16:06:26;;;;;;;1999.90;999.90;;;4.70;99.90;;;;;;5073598;28;20053;-77
2022/11/21 16:08:52;;;;;;;1999.90;999.90;;;4.70;99.90;;;;;;5072737;28;20045;-77
2022/11/21 16:11:24;;;;;;;1999.90;999.90;;;4.60;99.90;;;;;;5073099;28;20041;-81
2022/11/21 16:13:54;;;;;;;1999.90;999.90;;;4.50;99.90;;;;;;5077630;28;20447;-80
2022/11/21 16:16:22;;;;;;;1999.90;999.90;;;4.40;99.90;;;;;;5076043;28;20920;-81
2022/11/21 16:18:49;;;;;;;1999.90;999.90;;;4.30;99.90;;;;;;5075264;28;20912;-79
2022/11/21 16:21:14;;;;;;;1999.90;999.90;;;4.20;99.90;;;;;;5062952;28;20037;-82
2022/11/21 16:23:41;;;;;;;1999.90;999.90;;;4.10;99.90;;;;;;5070805;28;20037;-82
2022/11/21 16:26:07;;;;;;;1999.90;999.90;;;4.00;99.90;;;;;;5081003;28;20083;-80
2022/11/21 16:28:33;;;;;;;1999.90;999.90;;;3.90;99.90;;;;;;5076861;28;20068;-78
2022/11/21 16:31:00;;;;;;;1999.90;999.90;;;3.90;99.90;;;;;;5078062;28;20071;-79
2022/11/21 16:33:27;;;;;;;1999.90;999.90;;;4.00;99.90;;;;;;5074605;28;20770;-78
2022/11/21 16:35:55;;;;;;;1999.90;999.90;;;3.90;99.90;;;;;;5067266;28;20042;-82
2022/11/21 16:38:26;;;;;;;1999.90;999.90;;;3.90;99.90;;;;;;5043057;28;20264;-78
2022/11/21 16:40:53;;;;;;;1999.90;999.90;;;3.80;99.90;;;;;;5076102;28;20049;-78
2022/11/21 16:43:19;;;;;;;1999.90;999.90;;;3.80;99.90;;;;;;5069616;28;20029;-81
2022/11/21 16:45:45;;;;;;;1999.90;999.90;;;3.70;99.90;;;;;;5061497;28;20415;-80
2022/11/21 16:48:10;;;;;;;1999.90;999.90;;;3.70;99.90;;;;;;5079156;28;20067;-79
2022/11/21 16:50:36;;;;;;;1999.90;999.90;;;3.50;99.90;;;;;;5076987;28;20079;-78
2022/11/21 16:53:01;;;;;;;1999.90;999.90;;;3.60;99.90;;;;;;5081166;28;20033;-83
2022/11/21 16:55:29;;;;;;;1999.90;999.90;;;3.60;99.90;;;;;;5080945;28;20044;-78
2022/11/21 16:57:56;;;;;;;1999.90;999.90;;;3.60;99.90;;;;;;5079320;28;20040;-79
2022/11/21 17:00:23;;;;;;;1999.90;999.90;;;3.60;99.90;;;;;;5079103;28;20040;-80
2022/11/21 17:02:49;;;;;;;1999.90;999.90;;;3.60;99.90;;;;;;5070751;28;20033;-80
2022/11/21 17:05:15;;;;;;;1999.90;999.90;;;3.60;99.90;;;;;;5057251;28;20033;-79
2022/11/21 17:07:41;;;;;;;1999.90;999.90;;;3.50;99.90;;;;;;5059296;28;20483;-77
2022/11/21 17:10:07;;;;;;;1999.90;999.90;;;3.40;99.90;;;;;;5058981;28;20048;-79
2022/11/21 17:12:39;;;;;;;1999.90;999.90;;;3.30;99.90;;;;;;5068791;28;20071;-79
2022/11/21 17:15:08;;;;;;;1999.90;999.90;;;3.20;99.90;;;;;;5079741;22;20050;-78
2022/11/21 17:17:34;;;;;;;1999.90;999.90;;;3.20;99.90;;;;;;5045687;28;20197;-79
2022/11/21 17:20:00;;;;;;;1999.90;999.90;;;3.20;99.90;;;;;;5041505;28;20116;-79
2022/11/21 17:22:26;;;;;;;1999.90;999.90;;;3.00;99.90;;;;;;5043899;28;20523;-80
2022/11/21 17:24:52;;;;;;;1999.90;999.90;;;3.10;99.90;;;;;;5041264;28;20038;-77
2022/11/21 17:27:19;;;;;;;1999.90;999.90;;;3.20;99.90;;;;;;5037163;28;20033;-77
2022/11/21 17:29:45;;;;;;;1999.90;999.90;;;3.10;99.90;;;;;;5036617;28;20081;-78
2022/11/21 17:32:10;;;;;;;1999.90;999.90;;;3.10;99.90;;;;;;5037137;28;20073;-77
2022/11/21 17:34:36;;;;;;;1999.90;999.90;;;3.10;99.90;;;;;;5036380;28;20065;-77
2022/11/21 17:37:01;;;;;;;1999.90;999.90;;;3.10;99.90;;;;;;5037731;28;20029;-77
2022/11/21 17:39:27;;;;;;;1999.90;999.90;;;3.10;99.90;;;;;;5034990;28;20042;-77
2022/11/21 17:41:53;;;;;;;1999.90;999.90;;;3.00;99.90;;;;;;5042970;28;20487;-80
2022/11/21 17:44:18;;;;;;;1999.90;999.90;;;3.00;99.90;;;;;;5035882;28;20436;-78
2022/11/21 17:46:44;;;;;;;1999.90;999.90;;;3.00;99.90;;;;;;5036821;28;20026;-77
2022/11/21 17:49:11;;;;;;;1999.90;999.90;;;3.00;99.90;;;;;;5036877;28;20482;-78
2022/11/21 17:51:37;;;;;;;1999.90;999.90;;;3.00;99.90;;;;;;5037440;28;20046;-78
2022/11/21 17:54:04;;;;;;;1999.90;999.90;;;2.90;99.90;;;;;;5036167;28;20037;-77
2022/11/21 17:56:32;;;;;;;1999.90;999.90;;;2.90;99.90;;;;;;5036073;28;20033;-79
2022/11/21 17:58:58;;;;;;;1999.90;999.90;;;2.90;99.90;;;;;;5042558;28;20034;-80
2022/11/21 18:01:26;;;;;;;1999.90;999.90;;;2.80;99.90;;;;;;5039818;28;20030;-81
2022/11/21 18:04:01;;;;;;;1999.90;999.90;;;2.80;99.90;;;;;;5041060;28;20037;-78
2022/11/21 18:06:37;;;;;;;1999.90;999.90;;;2.80;99.90;;;;;;5038021;28;20078;-78
2022/11/21 18:09:04;;;;;;;1999.90;999.90;;;2.80;99.90;;;;;;5040278;28;20042;-78
2022/11/21 18:11:33;;;;;;;1999.90;999.90;;;3.00;99.90;;;;;;5041900;28;20060;-79